createdAt,value
2019-04-25T00:00:43.091Z,2.08
2019-04-25T00:01:57.082Z,2.15
2019-04-25T00:03:01.773Z,2.05
2019-04-25T00:04:06.656Z,2.15
2019-04-25T00:05:12.956Z,1.20
2019-04-25T00:06:17.970Z,2.05
2019-04-25T00:07:22.862Z,1.67
2019-04-25T00:08:27.725Z,2.30
2019-04-25T00:09:42.704Z,2.27
2019-04-25T00:10:47.716Z,1.70
2019-04-25T00:11:52.527Z,1.90
2019-04-25T00:12:57.459Z,2.00
2019-04-25T00:14:05.058Z,1.72
2019-04-25T00:15:11.156Z,1.82
2019-04-25T00:16:17.580Z,2.12
2019-04-25T00:17:22.848Z,1.92
2019-04-25T00:18:27.570Z,2.40
2019-04-25T00:19:32.377Z,2.42
2019-04-25T00:20:47.193Z,2.08
2019-04-25T00:22:23.395Z,1.87
2019-04-25T00:23:31.720Z,1.95
2019-04-25T00:24:52.952Z,2.37
2019-04-25T00:26:22.580Z,1.52
2019-04-25T00:27:28.713Z,1.90
2019-04-25T00:28:35.037Z,2.10
2019-04-25T00:29:40.986Z,1.90
2019-04-25T00:30:46.286Z,1.80
2019-04-25T00:31:53.309Z,1.95
2019-04-25T00:33:00.003Z,2.30
2019-04-25T00:34:04.934Z,1.47
2019-04-25T00:35:11.719Z,1.90
2019-04-25T00:36:16.526Z,2.40
2019-04-25T00:37:22.534Z,2.10
2019-04-25T00:38:27.506Z,2.00
2019-04-25T00:39:32.547Z,1.60
2019-04-25T00:40:37.469Z,2.55
2019-04-25T00:41:44.999Z,1.90
2019-04-25T00:42:50.297Z,1.98
2019-04-25T00:43:55.301Z,2.02
2019-04-25T00:45:02.202Z,2.30
2019-04-25T00:46:07.222Z,1.85
2019-04-25T00:47:11.914Z,1.60
2019-04-25T00:48:16.749Z,1.70
2019-04-25T00:49:22.013Z,1.75
2019-04-25T00:50:28.185Z,1.67
2019-04-25T00:51:32.933Z,1.65
2019-04-25T00:52:37.962Z,2.15
2019-04-25T00:53:43.429Z,2.10
2019-04-25T00:54:48.423Z,2.05
2019-04-25T00:55:53.871Z,2.12
2019-04-25T00:56:58.625Z,1.80
2019-04-25T00:58:09.589Z,1.60
2019-04-25T00:59:36.006Z,1.17
2019-04-25T01:00:58.686Z,1.52
2019-04-25T01:02:28.762Z,3.12
2019-04-25T01:03:34.301Z,3.90
2019-04-25T01:04:39.506Z,1.70
2019-04-25T01:05:44.846Z,2.98
2019-04-25T01:06:52.875Z,2.87
2019-04-25T01:07:57.647Z,4.15
2019-04-25T01:09:04.135Z,2.65
2019-04-25T01:10:09.391Z,2.50
2019-04-25T01:11:14.701Z,3.08
2019-04-25T01:12:21.600Z,3.33
2019-04-25T01:13:28.899Z,2.42
2019-04-25T01:14:35.301Z,2.60
2019-04-25T01:15:54.997Z,1.80
2019-04-25T01:17:01.698Z,2.90
2019-04-25T01:18:08.218Z,2.70
2019-04-25T01:19:13.680Z,2.67
2019-04-25T01:20:18.935Z,2.95
2019-04-25T01:21:25.306Z,2.33
2019-04-25T01:22:30.227Z,2.75
2019-04-25T01:23:35.547Z,2.40
2019-04-25T01:24:40.671Z,2.47
2019-04-25T01:25:46.705Z,2.47
2019-04-25T01:26:53.247Z,2.45
2019-04-25T01:27:58.140Z,3.40
2019-04-25T01:29:03.666Z,2.42
2019-04-25T01:30:09.506Z,2.30
2019-04-25T01:31:16.310Z,2.15
2019-04-25T01:32:28.744Z,2.12
2019-04-25T01:33:33.583Z,2.62
2019-04-25T01:34:48.479Z,2.27
2019-04-25T01:36:13.385Z,2.58
2019-04-25T01:38:05.560Z,2.20
2019-04-25T01:39:32.180Z,1.70
2019-04-25T01:40:56.179Z,2.10
2019-04-25T01:42:13.734Z,2.50
2019-04-25T01:43:35.466Z,1.70
2019-04-25T01:44:44.005Z,2.30
2019-04-25T01:45:49.697Z,2.00
2019-04-25T01:46:55.591Z,2.80
2019-04-25T01:48:01.520Z,1.47
2019-04-25T01:49:06.281Z,1.70
2019-04-25T01:50:11.211Z,2.30
2019-04-25T01:51:16.421Z,1.80
2019-04-25T01:52:21.296Z,1.30
2019-04-25T01:53:26.015Z,1.85
2019-04-25T01:54:31.115Z,1.70
2019-04-25T01:55:36.597Z,1.72
2019-04-25T01:56:41.448Z,1.57
2019-04-25T01:57:47.705Z,1.85
2019-04-25T01:58:53.897Z,2.10
2019-04-25T01:59:58.887Z,1.50
2019-04-25T02:01:04.629Z,1.45
2019-04-25T02:02:11.703Z,2.20
2019-04-25T02:03:16.608Z,2.00
2019-04-25T02:04:23.102Z,2.12
2019-04-25T02:05:28.250Z,1.92
2019-04-25T02:06:33.460Z,2.20
2019-04-25T02:07:38.447Z,1.62
2019-04-25T02:08:44.027Z,2.27
2019-04-25T02:09:48.964Z,2.95
2019-04-25T02:11:04.730Z,2.27
2019-04-25T02:12:20.202Z,1.60
2019-04-25T02:13:24.866Z,1.85
2019-04-25T02:14:29.599Z,1.75
2019-04-25T02:15:34.528Z,2.40
2019-04-25T02:16:39.368Z,2.52
2019-04-25T02:17:44.374Z,1.62
2019-04-25T02:18:49.661Z,1.80
2019-04-25T02:19:56.462Z,1.77
2019-04-25T02:21:02.866Z,2.25
2019-04-25T02:22:08.078Z,2.47
2019-04-25T02:23:14.153Z,2.15
2019-04-25T02:24:19.082Z,1.85
2019-04-25T02:25:24.625Z,1.75
2019-04-25T02:26:29.507Z,2.00
2019-04-25T02:27:34.332Z,1.65
2019-04-25T02:28:39.217Z,1.98
2019-04-25T02:29:46.726Z,1.80
2019-04-25T02:30:53.655Z,1.60
2019-04-25T02:32:02.172Z,1.65
2019-04-25T02:33:08.961Z,1.40
2019-04-25T02:34:15.232Z,2.55
2019-04-25T02:35:18.797Z,1.80
2019-04-25T02:36:24.677Z,1.90
2019-04-25T02:37:30.116Z,1.45
2019-04-25T02:38:34.946Z,2.10
2019-04-25T02:39:39.997Z,2.17
2019-04-25T02:40:46.047Z,1.95
2019-04-25T02:41:51.096Z,1.70
2019-04-25T02:42:58.452Z,2.62
2019-04-25T02:44:08.104Z,2.22
2019-04-25T02:45:29.878Z,2.05
2019-04-25T02:46:59.100Z,1.85
2019-04-25T02:48:34.164Z,2.27
2019-04-25T02:50:00.828Z,1.95
2019-04-25T02:51:15.460Z,2.25
2019-04-25T02:52:24.842Z,1.95
2019-04-25T02:53:37.387Z,1.87
2019-04-25T02:54:41.247Z,2.00
2019-04-25T02:55:49.195Z,1.77
2019-04-25T02:56:54.716Z,2.50
2019-04-25T02:58:00.510Z,1.92
2019-04-25T02:59:08.753Z,1.50
2019-04-25T03:00:24.662Z,2.60
2019-04-25T03:01:29.263Z,2.67
2019-04-25T03:02:34.343Z,1.45
2019-04-25T03:03:40.383Z,1.80
2019-04-25T03:04:45.552Z,1.92
2019-04-25T03:05:50.412Z,2.00
2019-04-25T03:06:57.351Z,2.00
2019-04-25T03:08:05.389Z,1.47
2019-04-25T03:09:11.985Z,2.08
2019-04-25T03:10:16.835Z,1.42
2019-04-25T03:11:24.282Z,1.70
2019-04-25T03:12:33.173Z,1.72
2019-04-25T03:13:34.952Z,1.98
2019-04-25T03:14:39.947Z,1.75
2019-04-25T03:15:45.260Z,1.60
2019-04-25T03:16:50.448Z,2.08
2019-04-25T03:17:55.226Z,1.80
2019-04-25T03:19:10.312Z,1.90
2019-04-25T03:20:45.141Z,3.10
2019-04-25T03:21:51.369Z,1.90
2019-04-25T03:22:59.375Z,2.00
2019-04-25T03:24:06.163Z,1.90
2019-04-25T03:25:13.495Z,1.40
2019-04-25T03:26:17.165Z,1.70
2019-04-25T03:27:23.003Z,1.72
2019-04-25T03:28:28.219Z,1.65
2019-04-25T03:29:34.204Z,1.90
2019-04-25T03:30:39.371Z,1.80
2019-04-25T03:31:44.981Z,1.60
2019-04-25T03:32:56.278Z,1.90
2019-04-25T03:34:05.507Z,1.82
2019-04-25T03:35:07.840Z,1.47
2019-04-25T03:36:14.244Z,2.08
2019-04-25T03:37:19.206Z,1.62
2019-04-25T03:38:24.319Z,1.87
2019-04-25T03:39:29.287Z,2.15
2019-04-25T03:40:34.311Z,3.10
2019-04-25T03:41:39.081Z,1.42
2019-04-25T03:43:40.202Z,1.62
2019-04-25T03:44:45.759Z,1.75
2019-04-25T03:45:50.901Z,2.17
2019-04-25T03:46:55.785Z,1.50
2019-04-25T03:48:01.157Z,1.45
2019-04-25T03:49:07.622Z,2.05
2019-04-25T03:50:13.981Z,1.95
2019-04-25T03:51:19.031Z,1.70
2019-04-25T03:52:24.045Z,1.65
2019-04-25T03:53:29.070Z,1.62
2019-04-25T03:54:34.206Z,2.08
2019-04-25T03:55:39.181Z,2.10
2019-04-25T03:56:53.223Z,1.80
2019-04-25T03:57:50.964Z,1.62
2019-04-25T03:58:55.949Z,1.85
2019-04-25T04:00:00.757Z,1.70
2019-04-25T04:01:07.997Z,1.70
2019-04-25T04:02:15.090Z,2.10
2019-04-25T04:03:19.818Z,2.47
2019-04-25T04:04:24.813Z,2.75
2019-04-25T04:05:29.742Z,2.52
2019-04-25T04:06:34.548Z,1.87
2019-04-25T04:07:39.371Z,2.40
2019-04-25T04:08:44.426Z,2.10
2019-04-25T04:09:49.346Z,2.37
2019-04-25T04:10:54.549Z,1.70
2019-04-25T04:11:59.422Z,2.40
2019-04-25T04:13:05.278Z,1.82
2019-04-25T04:14:10.743Z,2.25
2019-04-25T04:15:16.033Z,2.60
2019-04-25T04:16:23.793Z,2.25
2019-04-25T04:17:35.384Z,2.50
2019-04-25T04:18:44.908Z,4.10
2019-04-25T04:20:11.511Z,2.30
2019-04-25T04:21:54.444Z,2.02
2019-04-25T04:23:24.321Z,1.65
2019-04-25T04:24:44.031Z,2.10
2019-04-25T04:25:49.553Z,2.10
2019-04-25T04:27:28.434Z,2.70
2019-04-25T04:28:33.727Z,2.00
2019-04-25T04:29:38.629Z,2.00
2019-04-25T04:30:43.597Z,2.42
2019-04-25T04:31:50.089Z,1.75
2019-04-25T04:32:54.894Z,1.75
2019-04-25T04:33:59.856Z,2.02
2019-04-25T04:35:04.819Z,1.65
2019-04-25T04:36:09.653Z,1.47
2019-04-25T04:37:17.585Z,2.62
2019-04-25T04:38:24.032Z,1.95
2019-04-25T04:39:29.121Z,2.20
2019-04-25T04:40:34.371Z,2.05
2019-04-25T04:41:40.452Z,2.67
2019-04-25T04:42:46.119Z,2.10
2019-04-25T04:43:50.851Z,1.70
2019-04-25T04:44:55.974Z,2.35
2019-04-25T04:46:01.519Z,1.95
2019-04-25T04:47:08.571Z,2.50
2019-04-25T04:48:14.509Z,2.35
2019-04-25T04:49:19.975Z,1.95
2019-04-25T04:50:27.205Z,2.15
2019-04-25T04:51:35.361Z,1.80
2019-04-25T04:52:40.418Z,2.17
2019-04-25T04:53:45.403Z,2.08
2019-04-25T04:54:57.698Z,2.52
2019-04-25T04:55:56.921Z,1.92
2019-04-25T04:57:14.165Z,1.95
2019-04-25T04:58:08.182Z,1.32
2019-04-25T04:59:14.599Z,2.20
2019-04-25T05:00:19.681Z,1.75
2019-04-25T05:01:26.670Z,2.30
2019-04-25T05:03:17.049Z,1.70
2019-04-25T05:04:27.322Z,2.00
2019-04-25T05:05:51.273Z,1.90
2019-04-25T05:07:15.430Z,2.50
2019-04-25T05:08:24.969Z,1.90
2019-04-25T05:09:30.216Z,2.10
2019-04-25T05:10:35.187Z,2.83
2019-04-25T05:11:45.116Z,1.90
2019-04-25T05:12:50.012Z,2.20
2019-04-25T05:13:54.787Z,2.40
2019-04-25T05:15:00.008Z,2.37
2019-04-25T05:16:05.174Z,2.25
2019-04-25T05:17:10.326Z,1.85
2019-04-25T05:18:33.047Z,2.17
2019-04-25T05:19:24.376Z,2.45
2019-04-25T05:20:29.215Z,1.98
2019-04-25T05:21:34.403Z,1.82
2019-04-25T05:22:39.156Z,2.67
2019-04-25T05:23:44.376Z,2.50
2019-04-25T05:24:50.581Z,2.22
2019-04-25T05:25:55.768Z,2.60
2019-04-25T05:27:00.686Z,1.95
2019-04-25T05:28:06.940Z,2.30
2019-04-25T05:29:16.267Z,2.55
2019-04-25T05:30:26.523Z,2.25
2019-04-25T05:31:40.678Z,3.00
2019-04-25T05:32:45.780Z,2.25
2019-04-25T05:33:51.001Z,2.25
2019-04-25T05:34:55.789Z,2.37
2019-04-25T05:36:00.944Z,2.65
2019-04-25T05:37:06.312Z,2.33
2019-04-25T05:38:11.169Z,2.25
2019-04-25T05:39:18.103Z,2.02
2019-04-25T05:40:24.440Z,1.87
2019-04-25T05:41:38.247Z,2.30
2019-04-25T05:43:08.159Z,1.70
2019-04-25T05:44:14.923Z,2.25
2019-04-25T05:45:21.245Z,1.85
2019-04-25T05:46:26.311Z,2.70
2019-04-25T05:47:31.315Z,2.12
2019-04-25T05:48:36.126Z,2.50
2019-04-25T05:49:40.933Z,1.70
2019-04-25T05:50:46.055Z,2.00
2019-04-25T05:51:54.283Z,1.95
2019-04-25T05:52:59.168Z,2.20
2019-04-25T05:54:04.403Z,2.00
2019-04-25T05:55:09.596Z,1.77
2019-04-25T05:56:18.105Z,1.98
2019-04-25T05:57:23.967Z,2.65
2019-04-25T05:58:33.728Z,2.37
2019-04-25T05:59:41.295Z,1.40
2019-04-25T06:00:46.192Z,1.57
2019-04-25T06:01:51.402Z,1.92
2019-04-25T06:02:56.338Z,1.70
2019-04-25T06:04:03.671Z,2.92
2019-04-25T06:05:09.372Z,2.05
2019-04-25T06:06:14.314Z,2.35
2019-04-25T06:07:22.104Z,1.85
2019-04-25T06:08:29.171Z,1.40
2019-04-25T06:09:54.412Z,1.98
2019-04-25T06:11:06.846Z,1.55
2019-04-25T06:12:50.777Z,1.70
2019-04-25T06:14:00.348Z,1.82
2019-04-25T06:15:06.498Z,1.80
2019-04-25T06:16:25.615Z,2.05
2019-04-25T06:17:38.613Z,1.85
2019-04-25T06:19:21.226Z,1.87
2019-04-25T06:20:38.829Z,1.92
2019-04-25T06:21:46.551Z,2.08
2019-04-25T06:22:57.107Z,2.55
2019-04-25T06:24:25.809Z,1.40
2019-04-25T06:25:36.289Z,2.25
2019-04-25T06:26:48.393Z,1.77
2019-04-25T06:27:57.271Z,2.25
2019-04-25T06:29:07.848Z,1.70
2019-04-25T06:30:24.903Z,2.45
2019-04-25T06:31:34.169Z,1.60
2019-04-25T06:32:44.814Z,2.00
2019-04-25T06:33:50.970Z,1.95
2019-04-25T06:34:56.149Z,2.10
2019-04-25T06:36:01.493Z,1.47
2019-04-25T06:37:06.417Z,1.50
2019-04-25T06:38:13.989Z,2.58
2019-04-25T06:39:20.296Z,1.90
2019-04-25T06:40:26.282Z,1.95
2019-04-25T06:41:32.308Z,1.85
2019-04-25T06:42:39.010Z,1.85
2019-04-25T06:43:45.863Z,1.70
2019-04-25T06:45:00.708Z,1.70
2019-04-25T06:46:24.540Z,1.70
2019-04-25T06:47:50.727Z,2.10
2019-04-25T06:49:04.723Z,2.20
2019-04-25T06:50:09.742Z,2.62
2019-04-25T06:51:14.560Z,1.55
2019-04-25T06:52:24.578Z,2.02
2019-04-25T06:53:29.108Z,1.95
2019-04-25T06:54:35.257Z,1.60
2019-04-25T06:55:40.303Z,1.80
2019-04-25T06:56:45.312Z,1.90
2019-04-25T06:57:55.549Z,1.60
2019-04-25T06:59:10.347Z,2.02
2019-04-25T07:00:19.353Z,1.60
2019-04-25T07:01:27.927Z,1.75
2019-04-25T07:02:38.721Z,2.12
2019-04-25T07:03:45.610Z,1.70
2019-04-25T07:04:51.607Z,1.22
2019-04-25T07:05:56.956Z,1.40
2019-04-25T07:07:12.039Z,1.60
2019-04-25T07:08:14.999Z,1.60
2019-04-25T07:09:20.452Z,2.25
2019-04-25T07:10:26.223Z,2.50
2019-04-25T07:11:32.436Z,1.47
2019-04-25T07:12:41.259Z,1.65
2019-04-25T07:13:46.284Z,1.55
2019-04-25T07:14:55.646Z,1.47
2019-04-25T07:16:03.063Z,2.05
2019-04-25T07:17:14.450Z,1.60
2019-04-25T07:18:20.436Z,2.10
2019-04-25T07:19:32.020Z,1.50
2019-04-25T07:20:39.492Z,1.52
2019-04-25T07:21:44.810Z,2.20
2019-04-25T07:22:54.277Z,1.50
2019-04-25T07:23:59.511Z,1.60
2019-04-25T07:25:13.615Z,1.90
2019-04-25T07:26:39.783Z,1.60
2019-04-25T07:28:03.286Z,2.17
2019-04-25T07:29:25.725Z,2.05
2019-04-25T07:31:09.990Z,1.65
2019-04-25T07:32:31.229Z,1.50
2019-04-25T07:34:09.803Z,1.40
2019-04-25T07:35:20.791Z,1.82
2019-04-25T07:36:29.113Z,2.00
2019-04-25T07:37:37.174Z,1.82
2019-04-25T07:39:08.176Z,2.17
2019-04-25T07:40:17.771Z,1.98
2019-04-25T07:41:34.295Z,1.72
2019-04-25T07:42:39.975Z,1.40
2019-04-25T07:43:50.490Z,2.05
2019-04-25T07:45:04.207Z,1.82
2019-04-25T07:46:10.627Z,1.90
2019-04-25T07:47:16.136Z,1.60
2019-04-25T07:48:25.660Z,1.95
2019-04-25T07:49:33.109Z,1.55
2019-04-25T07:50:37.937Z,2.30
2019-04-25T07:51:48.645Z,2.33
2019-04-25T07:53:03.602Z,2.15
2019-04-25T07:54:18.296Z,1.77
2019-04-25T07:55:25.265Z,2.20
2019-04-25T07:56:34.996Z,1.92
2019-04-25T07:58:04.885Z,2.25
2019-04-25T07:59:43.533Z,1.90
2019-04-25T08:01:07.472Z,2.08
2019-04-25T08:03:15.633Z,2.67
2019-04-25T08:04:16.559Z,1.70
2019-04-25T08:05:24.154Z,1.90
2019-04-25T08:06:33.415Z,2.20
2019-04-25T08:07:39.382Z,1.57
2019-04-25T08:08:48.619Z,1.90
2019-04-25T08:09:56.723Z,2.00
2019-04-25T08:11:05.207Z,1.85
2019-04-25T08:12:14.164Z,1.90
2019-04-25T08:13:30.093Z,1.40
2019-04-25T08:14:48.989Z,1.37
2019-04-25T08:15:55.311Z,1.55
2019-04-25T08:17:04.774Z,2.08
2019-04-25T08:18:25.427Z,1.45
2019-04-25T08:20:03.898Z,1.95
2019-04-25T08:21:20.585Z,1.77
2019-04-25T08:22:34.468Z,1.80
2019-04-25T08:23:39.805Z,2.00
2019-04-25T08:24:53.855Z,1.50
2019-04-25T08:26:17.780Z,1.30
2019-04-25T08:27:25.471Z,1.67
2019-04-25T08:28:50.408Z,1.72
2019-04-25T08:29:48.465Z,2.50
2019-04-25T08:31:13.432Z,1.70
2019-04-25T08:32:39.596Z,2.00
2019-04-25T08:33:55.590Z,1.72
2019-04-25T08:35:07.398Z,1.90
2019-04-25T08:36:40.282Z,1.72
2019-04-25T08:37:55.469Z,1.75
2019-04-25T08:39:20.766Z,2.20
2019-04-25T08:40:33.126Z,1.60
2019-04-25T08:41:47.174Z,1.40
2019-04-25T08:43:17.003Z,1.40
2019-04-25T08:44:34.781Z,1.47
2019-04-25T08:46:00.344Z,1.92
2019-04-25T08:47:22.158Z,1.80
2019-04-25T08:51:10.571Z,1.80
2019-04-25T08:52:44.298Z,1.65
2019-04-25T08:54:14.828Z,2.15
2019-04-25T08:55:56.656Z,1.98
2019-04-25T08:57:04.328Z,1.65
2019-04-25T08:58:16.714Z,1.60
2019-04-25T08:59:47.214Z,1.75
2019-04-25T09:01:07.945Z,2.02
2019-04-25T09:02:23.548Z,1.80
2019-04-25T09:03:37.958Z,1.90
2019-04-25T09:05:04.021Z,2.72
2019-04-25T09:06:19.582Z,1.70
2019-04-25T09:07:39.741Z,1.52
2019-04-25T09:08:50.101Z,1.40
2019-04-25T09:10:04.053Z,1.95
2019-04-25T09:11:32.282Z,1.45
2019-04-25T09:15:37.745Z,2.20
2019-04-25T09:18:27.652Z,1.82
2019-04-25T09:20:55.113Z,1.60
2019-04-25T09:23:43.381Z,1.77
2019-04-25T09:24:48.346Z,1.40
2019-04-25T09:26:00.817Z,1.95
2019-04-25T09:27:05.856Z,1.67
2019-04-25T09:28:14.262Z,1.87
2019-04-25T09:29:33.217Z,1.90
2019-04-25T09:31:15.911Z,1.98
2019-04-25T09:32:24.698Z,1.70
2019-04-25T09:33:34.150Z,2.25
2019-04-25T09:34:39.345Z,1.57
2019-04-25T09:35:49.289Z,3.30
2019-04-25T09:36:55.682Z,1.92
2019-04-25T09:38:02.965Z,2.50
2019-04-25T09:39:35.710Z,3.60
2019-04-25T09:40:59.227Z,2.20
2019-04-25T09:42:08.617Z,2.33
2019-04-25T09:43:15.133Z,2.90
2019-04-25T09:44:32.466Z,2.52
2019-04-25T09:45:53.793Z,4.28
2019-04-25T09:47:08.971Z,2.10
2019-04-25T09:48:45.579Z,3.98
2019-04-25T09:49:57.991Z,2.77
2019-04-25T09:51:28.892Z,3.50
2019-04-25T09:52:36.061Z,2.92
2019-04-25T09:53:45.951Z,2.98
2019-04-25T09:55:10.794Z,2.30
2019-04-25T09:56:30.712Z,2.15
2019-04-25T09:58:06.757Z,1.98
2019-04-25T09:59:27.907Z,2.00
2019-04-25T10:00:43.609Z,2.33
2019-04-25T10:01:51.140Z,1.95
2019-04-25T10:02:57.548Z,2.50
2019-04-25T10:04:06.817Z,1.40
2019-04-25T10:05:11.877Z,2.72
2019-04-25T10:06:20.087Z,2.08
2019-04-25T10:07:29.757Z,1.90
2019-04-25T10:08:39.032Z,2.00
2019-04-25T10:09:44.724Z,1.92
2019-04-25T10:10:50.634Z,1.80
2019-04-25T10:11:56.359Z,2.45
2019-04-25T10:13:04.199Z,2.47
2019-04-25T10:14:44.790Z,1.40
2019-04-25T10:16:14.486Z,2.00
2019-04-25T10:17:19.242Z,1.90
2019-04-25T10:18:29.073Z,2.00
2019-04-25T10:19:35.397Z,2.52
2019-04-25T10:20:49.420Z,2.05
2019-04-25T10:21:59.633Z,1.72
2019-04-25T10:23:34.140Z,1.50
2019-04-25T10:25:06.620Z,3.30
2019-04-25T10:26:48.137Z,1.50
2019-04-25T10:28:30.614Z,1.40
2019-04-25T10:30:17.773Z,2.10
2019-04-25T10:31:41.369Z,1.32
2019-04-25T10:33:06.505Z,1.50
2019-04-25T10:35:20.707Z,1.55
2019-04-25T10:36:53.336Z,1.60
2019-04-25T10:38:24.191Z,1.55
2019-04-25T10:40:28.672Z,1.62
2019-04-25T10:41:50.702Z,2.17
2019-04-25T10:43:38.126Z,1.47
2019-04-25T10:47:28.587Z,2.10
2019-04-25T10:48:50.326Z,1.77
2019-04-25T10:50:11.105Z,1.52
2019-04-25T10:51:38.214Z,2.30
2019-04-25T10:53:01.775Z,1.70
2019-04-25T10:54:45.822Z,2.20
2019-04-25T10:56:27.203Z,1.92
2019-04-25T11:00:09.610Z,2.00
2019-04-25T11:01:15.394Z,1.50
2019-04-25T11:02:28.296Z,1.90
2019-04-25T11:03:48.404Z,1.50
2019-04-25T11:04:59.610Z,1.80
2019-04-25T11:06:05.952Z,1.80
2019-04-25T11:07:13.554Z,1.37
2019-04-25T11:08:28.415Z,2.00
2019-04-25T11:09:36.920Z,1.25
2019-04-25T11:10:49.860Z,1.30
2019-04-25T11:13:57.740Z,1.50
2019-04-25T11:15:04.507Z,2.00
2019-04-25T11:16:13.806Z,1.77
2019-04-25T11:17:19.006Z,1.62
2019-04-25T11:18:23.974Z,1.30
2019-04-25T11:19:29.302Z,1.80
2019-04-25T11:20:43.089Z,1.62
2019-04-25T11:21:50.425Z,2.52
2019-04-25T11:22:56.089Z,2.47
2019-04-25T11:24:01.686Z,2.30
2019-04-25T11:25:15.011Z,1.50
2019-04-25T11:26:20.392Z,1.72
2019-04-25T11:27:38.612Z,1.37
2019-04-25T11:28:45.851Z,1.70
2019-04-25T11:29:51.261Z,1.10
2019-04-25T11:30:56.958Z,1.40
2019-04-25T11:32:06.920Z,1.57
2019-04-25T11:33:19.785Z,1.40
2019-04-25T11:34:54.953Z,1.42
2019-04-25T11:36:00.059Z,1.40
2019-04-25T11:37:23.558Z,1.75
2019-04-25T11:38:53.597Z,1.27
2019-04-25T11:40:17.284Z,1.60
2019-04-25T11:41:24.162Z,1.70
2019-04-25T11:42:29.840Z,1.82
2019-04-25T11:43:35.658Z,6.65
2019-04-25T11:44:41.306Z,3.58
2019-04-25T11:45:47.455Z,2.22
2019-04-25T11:46:52.699Z,1.65
2019-04-25T11:48:01.980Z,1.27
2019-04-25T11:49:08.878Z,1.22
2019-04-25T11:50:24.183Z,1.80
2019-04-25T11:51:41.825Z,2.10
2019-04-25T11:52:48.720Z,2.02
2019-04-25T11:54:03.671Z,7.30
2019-04-25T11:55:31.935Z,2.40
2019-04-25T11:56:51.179Z,2.10
2019-04-25T11:57:56.098Z,1.20
2019-04-25T11:59:01.273Z,1.60
2019-04-25T12:00:07.427Z,1.00
2019-04-25T12:01:13.869Z,2.00
2019-04-25T12:02:20.639Z,1.10
2019-04-25T12:03:28.433Z,1.42
2019-04-25T12:04:38.437Z,1.82
2019-04-25T12:05:48.400Z,1.20
2019-04-25T12:06:54.290Z,1.60
2019-04-25T12:07:59.110Z,1.70
2019-04-25T12:09:05.439Z,1.50
2019-04-25T12:10:12.996Z,2.33
2019-04-25T12:11:18.375Z,1.92
2019-04-25T12:12:23.847Z,1.62
2019-04-25T12:13:34.553Z,1.77
2019-04-25T12:14:39.729Z,1.30
2019-04-25T12:15:47.115Z,1.55
2019-04-25T12:16:56.086Z,1.45
2019-04-25T12:18:04.567Z,1.75
2019-04-25T12:19:09.657Z,3.27
2019-04-25T12:20:17.993Z,8.35
2019-04-25T12:21:27.624Z,5.20
2019-04-25T12:22:35.720Z,2.10
2019-04-25T12:23:45.259Z,2.70
2019-04-25T12:24:50.294Z,3.95
2019-04-25T12:25:55.458Z,2.30
2019-04-25T12:27:08.484Z,2.12
2019-04-25T12:28:25.231Z,2.62
2019-04-25T12:29:41.625Z,2.60
2019-04-25T12:30:56.256Z,2.25
2019-04-25T12:32:08.007Z,1.72
2019-04-25T12:33:30.027Z,2.20
2019-04-25T12:34:35.676Z,1.50
2019-04-25T12:35:52.005Z,1.65
2019-04-25T12:37:21.183Z,2.27
2019-04-25T12:38:29.157Z,1.90
2019-04-25T12:39:47.095Z,2.00
2019-04-25T12:40:58.131Z,2.27
2019-04-25T12:42:24.180Z,1.82
2019-04-25T12:43:34.615Z,2.67
2019-04-25T12:45:09.354Z,2.35
2019-04-25T12:46:27.070Z,1.90
2019-04-25T12:48:00.182Z,2.25
2019-04-25T12:49:13.146Z,2.15
2019-04-25T12:50:23.035Z,1.62
2019-04-25T12:51:54.599Z,1.35
2019-04-25T12:53:10.236Z,2.45
2019-04-25T12:54:15.541Z,3.08
2019-04-25T12:55:30.705Z,2.02
2019-04-25T12:56:45.178Z,1.70
2019-04-25T12:58:03.512Z,2.42
2019-04-25T12:59:33.064Z,1.60
2019-04-25T13:03:06.921Z,2.25
2019-04-25T13:04:37.041Z,2.10
2019-04-25T13:06:07.578Z,2.27
2019-04-25T13:07:16.187Z,2.02
2019-04-25T13:08:54.250Z,1.70
2019-04-25T13:10:08.726Z,2.30
2019-04-25T13:11:19.430Z,2.02
2019-04-25T13:12:25.936Z,2.90
2019-04-25T13:13:31.605Z,1.80
2019-04-25T13:14:37.363Z,1.70
2019-04-25T13:15:46.048Z,1.40
2019-04-25T13:16:57.183Z,1.42
2019-04-25T13:18:03.643Z,2.00
2019-04-25T13:19:23.408Z,2.17
2019-04-25T13:20:26.507Z,1.40
2019-04-25T13:21:40.091Z,2.00
2019-04-25T13:22:45.452Z,2.00
2019-04-25T13:23:54.376Z,1.60
2019-04-25T13:25:06.812Z,1.60
2019-04-25T13:26:12.502Z,1.50
2019-04-25T13:27:27.678Z,1.98
2019-04-25T13:29:05.233Z,1.75
2019-04-25T13:30:34.764Z,1.60
2019-04-25T13:31:57.041Z,2.40
2019-04-25T13:33:18.704Z,2.02
2019-04-25T13:34:36.411Z,1.60
2019-04-25T13:35:46.808Z,1.87
2019-04-25T13:36:54.141Z,2.20
2019-04-25T13:38:21.357Z,2.70
2019-04-25T13:39:34.177Z,1.80
2019-04-25T13:40:47.165Z,1.65
2019-04-25T13:42:15.787Z,1.90
2019-04-25T13:43:21.094Z,1.65
2019-04-25T13:44:39.728Z,1.70
2019-04-25T13:45:46.185Z,1.62
2019-04-25T13:46:53.310Z,1.80
2019-04-25T13:48:06.189Z,1.80
2019-04-25T13:49:17.867Z,1.92
2019-04-25T13:50:24.821Z,2.02
2019-04-25T13:51:33.224Z,1.67
2019-04-25T13:52:43.194Z,1.90
2019-04-25T13:54:01.433Z,1.98
2019-04-25T13:55:07.157Z,1.27
2019-04-25T13:56:17.153Z,1.50
2019-04-25T13:57:26.151Z,1.30
2019-04-25T13:58:32.154Z,1.85
2019-04-25T14:01:57.692Z,1.82
2019-04-25T14:03:05.239Z,1.45
2019-04-25T14:04:11.260Z,2.25
2019-04-25T14:05:26.014Z,1.75
2019-04-25T14:06:34.077Z,1.90
2019-04-25T14:08:03.231Z,1.77
2019-04-25T14:09:27.132Z,1.40
2019-04-25T14:10:49.592Z,1.70
2019-04-25T14:12:01.404Z,1.90
2019-04-25T14:13:10.244Z,2.17
2019-04-25T14:14:25.583Z,2.45
2019-04-25T14:15:54.283Z,2.10
2019-04-25T14:17:13.788Z,2.00
2019-04-25T14:18:39.673Z,12.95
2019-04-25T14:20:04.976Z,4.53
2019-04-25T14:21:16.852Z,5.72
2019-04-25T14:22:31.502Z,4.30
2019-04-25T14:23:41.411Z,2.30
2019-04-25T14:24:51.731Z,2.30
2019-04-25T14:25:58.526Z,2.52
2019-04-25T14:27:07.651Z,2.35
2019-04-25T14:28:16.182Z,3.15
2019-04-25T14:29:22.349Z,3.75
2019-04-25T14:30:34.407Z,2.05
2019-04-25T14:31:46.783Z,2.55
2019-04-25T14:32:51.327Z,3.40
2019-04-25T14:33:58.562Z,2.42
2019-04-25T14:35:11.323Z,2.90
2019-04-25T14:36:20.185Z,2.95
2019-04-25T14:37:30.238Z,2.95
2019-04-25T14:38:39.086Z,3.22
2019-04-25T14:39:47.275Z,2.00
2019-04-25T14:40:55.607Z,1.50
2019-04-25T14:42:05.864Z,6.92
2019-04-25T14:43:10.758Z,7.05
2019-04-25T14:44:16.459Z,5.00
2019-04-25T14:45:39.890Z,2.95
2019-04-25T14:46:35.658Z,2.05
2019-04-25T14:47:41.348Z,3.15
2019-04-25T14:48:46.357Z,2.22
2019-04-25T14:49:51.831Z,2.60
2019-04-25T14:50:59.927Z,2.77
2019-04-25T14:52:05.121Z,3.08
2019-04-25T14:53:16.706Z,3.50
2019-04-25T14:54:35.984Z,3.72
2019-04-25T14:55:54.944Z,3.72
2019-04-25T14:57:23.127Z,5.70
2019-04-25T14:58:39.204Z,3.80
2019-04-25T14:59:52.258Z,4.70
2019-04-25T15:00:57.771Z,5.30
2019-04-25T15:02:06.878Z,5.28
2019-04-25T15:03:16.391Z,5.95
2019-04-25T15:04:25.893Z,4.97
2019-04-25T15:05:30.990Z,2.40
2019-04-25T15:06:36.399Z,2.65
2019-04-25T15:07:43.236Z,2.80
2019-04-25T15:08:54.902Z,3.40
2019-04-25T15:10:03.863Z,4.33
2019-04-25T15:12:06.431Z,4.12
2019-04-25T15:13:13.153Z,3.70
2019-04-25T15:14:45.193Z,5.20
2019-04-25T15:15:56.474Z,3.30
2019-04-25T15:17:45.153Z,2.70
2019-04-25T15:19:04.323Z,3.05
2019-04-25T15:20:41.174Z,4.90
2019-04-25T15:21:49.994Z,3.42
2019-04-25T15:23:15.094Z,3.33
2019-04-25T15:24:54.451Z,3.87
2019-04-25T15:26:25.279Z,3.15
2019-04-25T15:27:33.868Z,2.17
2019-04-25T15:28:48.180Z,3.35
2019-04-25T15:29:59.350Z,2.80
2019-04-25T15:31:04.590Z,2.65
2019-04-25T15:32:16.194Z,2.60
2019-04-25T15:34:17.066Z,2.55
2019-04-25T15:35:53.426Z,12.47
2019-04-25T15:37:34.903Z,8.15
2019-04-25T15:39:18.699Z,15.43
2019-04-25T15:41:02.772Z,14.40
2019-04-25T15:42:28.320Z,10.30
2019-04-25T15:44:26.662Z,5.45
2019-04-25T15:45:46.416Z,3.40
2019-04-25T15:46:57.214Z,4.75
2019-04-25T15:48:06.627Z,3.05
2019-04-25T15:49:15.730Z,2.92
2019-04-25T15:50:27.691Z,2.85
2019-04-25T15:51:35.489Z,3.92
2019-04-25T15:52:45.021Z,3.95
2019-04-25T15:53:54.022Z,2.58
2019-04-25T15:55:07.128Z,2.90
2019-04-25T15:56:06.979Z,3.95
2019-04-25T15:57:16.366Z,2.62
2019-04-25T15:58:21.733Z,3.20
2019-04-25T15:59:27.421Z,1.80
2019-04-25T16:00:35.768Z,2.25
2019-04-25T16:01:41.767Z,2.47
2019-04-25T16:02:48.677Z,3.60
2019-04-25T16:04:19.525Z,2.95
2019-04-25T16:06:31.922Z,2.92
2019-04-25T16:07:40.672Z,1.32
2019-04-25T16:08:49.105Z,2.45
2019-04-25T16:09:55.878Z,2.60
2019-04-25T16:11:02.534Z,1.47
2019-04-25T16:12:15.473Z,2.65
2019-04-25T16:14:12.415Z,1.80
2019-04-25T16:15:38.451Z,1.80
2019-04-25T16:16:57.128Z,1.98
2019-04-25T16:18:07.094Z,1.70
2019-04-25T16:20:06.146Z,1.62
2019-04-25T16:21:17.077Z,2.45
2019-04-25T16:22:39.059Z,2.35
2019-04-25T16:23:47.417Z,2.67
2019-04-25T16:24:56.270Z,1.80
2019-04-25T16:26:01.367Z,1.52